Time;durP1;ratioP1;P1;durP2;ratioP2;P2;SDS_P1;SDS_P2;PMS_P1;PMS_P2;Temp;Humidity;BMP_temperature;BMP_pressure;BME280_temperature;BME280_humidity;BME280_pressure;Samples;Min_cycle;Max_cycle;Signal;HPM_P1;HPM_P2
2022/01/14 00:01:57;;;;;;;23.42;12.68;;;;;;;;;;5061741;28;20052;-78
2022/01/14 00:04:23;;;;;;;35.80;13.05;;;;;;;;;;5043847;28;20037;-77
2022/01/14 00:06:50;;;;;;;32.30;13.15;;;;;;;;;;5043248;28;20146;-76
2022/01/14 00:09:16;;;;;;;28.92;11.73;;;;;;;;;;5042176;28;20468;-78
2022/01/14 00:11:53;;;;;;;28.00;12.70;;;;;;;;;;5059445;28;20484;-78
2022/01/14 00:16:46;;;;;;;30.17;12.60;;;;;;;;;;5060402;28;20072;-78
2022/01/14 00:19:12;;;;;;;23.70;10.95;;;;;;;;;;5044684;28;20055;-79
2022/01/14 00:21:40;;;;;;;27.80;12.00;;;;;;;;;;5059868;28;20112;-78
2022/01/14 00:24:11;;;;;;;23.75;10.02;;;;;;;;;;5060022;28;20446;-77
2022/01/14 00:34:58;;;;;;;24.50;10.70;;;;;;;;;;5059672;28;20040;-78
2022/01/14 00:37:24;;;;;;;21.40;10.35;;;;;;;;;;5060290;28;20213;-77
2022/01/14 00:39:50;;;;;;;27.15;10.98;;;;;;;;;;5061969;28;20377;-78
2022/01/14 00:42:16;;;;;;;28.15;10.82;;;;;;;;;;5059880;28;20086;-77
2022/01/14 00:44:42;;;;;;;23.00;9.25;;;;;;;;;;5059611;28;20456;-79
2022/01/14 00:47:08;;;;;;;20.58;10.38;;;;;;;;;;5059225;28;20033;-77
2022/01/14 00:49:34;;;;;;;27.13;11.02;;;;;;;;;;5059258;28;20102;-77
2022/01/14 00:52:00;;;;;;;23.65;9.57;;;;;;;;;;5043846;28;20044;-76
2022/01/14 00:54:26;;;;;;;25.70;11.05;;;;;;;;;;5043788;28;20539;-76
2022/01/14 00:57:15;;;;;;;22.60;10.48;;;;;;;;;;5058703;28;20041;-77
2022/01/14 00:59:41;;;;;;;26.10;10.65;;;;;;;;;;5059388;28;20490;-76
2022/01/14 01:02:07;;;;;;;22.20;10.55;;;;;;;;;;5042833;28;20040;-78
2022/01/14 01:04:36;;;;;;;20.10;9.85;;;;;;;;;;5058595;28;20607;-76
2022/01/14 01:07:03;;;;;;;21.63;9.80;;;;;;;;;;5060262;28;20036;-77
2022/01/14 01:09:30;;;;;;;28.48;11.23;;;;;;;;;;5043781;28;20040;-78
2022/01/14 01:12:30;;;;;;;25.27;10.88;;;;;;;;;;5055848;28;20049;-77
2022/01/14 01:15:07;;;;;;;25.48;10.68;;;;;;;;;;5060658;28;20036;-77
2022/01/14 01:17:34;;;;;;;21.67;9.00;;;;;;;;;;5060442;28;20052;-76
2022/01/14 01:20:00;;;;;;;21.08;9.60;;;;;;;;;;5059017;28;20090;-76
2022/01/14 01:22:27;;;;;;;29.65;11.38;;;;;;;;;;5059458;28;20040;-77
2022/01/14 01:24:53;;;;;;;21.67;10.35;;;;;;;;;;5044137;28;20041;-77
2022/01/14 01:27:21;;;;;;;24.50;9.90;;;;;;;;;;5058923;28;20029;-76
2022/01/14 01:29:52;;;;;;;23.40;10.23;;;;;;;;;;5042720;28;20072;-77
2022/01/14 01:32:19;;;;;;;24.25;10.55;;;;;;;;;;5044240;28;20036;-77
2022/01/14 01:34:45;;;;;;;25.25;11.70;;;;;;;;;;5059756;28;20132;-77
2022/01/14 01:37:11;;;;;;;24.77;9.73;;;;;;;;;;5042425;28;20068;-77
2022/01/14 01:39:37;;;;;;;20.70;10.00;;;;;;;;;;5060173;28;20037;-77
2022/01/14 01:42:05;;;;;;;21.80;10.25;;;;;;;;;;5040167;28;20037;-77
2022/01/14 01:44:32;;;;;;;28.55;11.52;;;;;;;;;;5041797;28;20055;-77
2022/01/14 01:46:58;;;;;;;21.50;10.00;;;;;;;;;;5043370;28;20040;-76
2022/01/14 01:49:26;;;;;;;25.13;10.48;;;;;;;;;;5059129;28;20536;-76
2022/01/14 01:51:52;;;;;;;20.23;10.57;;;;;;;;;;5041935;28;20044;-76
2022/01/14 01:54:19;;;;;;;27.50;10.85;;;;;;;;;;5059967;28;20468;-77
2022/01/14 01:56:45;;;;;;;28.23;12.18;;;;;;;;;;5059139;28;20045;-76
2022/01/14 01:59:11;;;;;;;28.02;10.93;;;;;;;;;;5041390;28;20055;-77
2022/01/14 02:01:41;;;;;;;23.38;10.52;;;;;;;;;;5043571;28;20048;-77
2022/01/14 02:04:07;;;;;;;22.95;10.52;;;;;;;;;;5043102;28;20032;-77
2022/01/14 02:06:33;;;;;;;26.20;10.07;;;;;;;;;;5058205;28;20444;-77
2022/01/14 02:08:59;;;;;;;26.42;10.50;;;;;;;;;;5063488;28;20028;-77
2022/01/14 02:11:25;;;;;;;25.45;11.43;;;;;;;;;;5044314;28;20400;-77
2022/01/14 02:13:54;;;;;;;33.22;11.02;;;;;;;;;;5044881;28;20051;-77
2022/01/14 02:16:33;;;;;;;25.30;10.55;;;;;;;;;;5062441;28;20540;-78
2022/01/14 02:19:14;;;;;;;23.83;10.98;;;;;;;;;;5061431;28;20175;-77
2022/01/14 02:25:11;;;;;;;25.98;11.32;;;;;;;;;;5062392;28;20504;-76
2022/01/14 02:27:16;;;;;;;25.20;10.10;;;;;;;;;;5057900;28;20045;-77
2022/01/14 02:29:42;;;;;;;30.90;11.45;;;;;;;;;;5062812;28;20036;-78
2022/01/14 02:32:09;;;;;;;24.92;10.93;;;;;;;;;;5046355;28;20036;-76
2022/01/14 02:34:37;;;;;;;28.08;11.85;;;;;;;;;;5063531;28;20048;-76
2022/01/14 02:37:03;;;;;;;30.92;12.77;;;;;;;;;;5061886;28;20469;-76
2022/01/14 02:39:29;;;;;;;24.42;11.77;;;;;;;;;;5061796;28;20040;-77
2022/01/14 02:41:55;;;;;;;29.88;11.75;;;;;;;;;;5042970;28;20110;-77
2022/01/14 02:44:27;;;;;;;25.70;11.30;;;;;;;;;;5046039;28;20124;-77
2022/01/14 02:47:03;;;;;;;27.88;11.70;;;;;;;;;;5043814;28;20052;-78
2022/01/14 02:49:31;;;;;;;29.15;10.85;;;;;;;;;;5061789;28;20040;-77
2022/01/14 02:51:58;;;;;;;27.42;12.07;;;;;;;;;;5062950;28;20044;-77
2022/01/14 02:54:31;;;;;;;33.83;11.63;;;;;;;;;;5045438;28;20076;-77
2022/01/14 02:56:58;;;;;;;26.13;10.75;;;;;;;;;;5044387;28;20047;-76
2022/01/14 02:59:26;;;;;;;27.33;11.57;;;;;;;;;;5045662;28;20132;-79
2022/01/14 03:01:52;;;;;;;28.05;10.85;;;;;;;;;;5062919;28;20041;-77
2022/01/14 03:04:21;;;;;;;27.85;10.50;;;;;;;;;;5060995;28;20036;-77
2022/01/14 03:06:48;;;;;;;26.45;10.77;;;;;;;;;;5061317;28;20039;-77
2022/01/14 03:09:14;;;;;;;23.80;10.63;;;;;;;;;;5045946;28;20111;-76
2022/01/14 03:11:43;;;;;;;25.73;11.10;;;;;;;;;;5042246;28;20048;-76
2022/01/14 03:14:10;;;;;;;29.05;10.20;;;;;;;;;;5045353;28;20037;-77
2022/01/14 03:16:41;;;;;;;26.23;11.98;;;;;;;;;;5043804;28;20480;-76
2022/01/14 03:19:14;;;;;;;26.48;10.48;;;;;;;;;;5061097;28;20102;-76
2022/01/14 03:21:41;;;;;;;26.50;11.05;;;;;;;;;;5060689;28;20036;-77
2022/01/14 03:25:35;;;;;;;24.77;11.00;;;;;;;;;;5046640;28;20101;-77
2022/01/14 03:27:06;;;;;;;30.30;10.95;;;;;;;;;;5061115;28;20075;-76
2022/01/14 03:29:32;;;;;;;31.88;11.30;;;;;;;;;;5062256;28;20044;-76
2022/01/14 03:31:59;;;;;;;26.13;10.52;;;;;;;;;;5043442;28;20051;-76
2022/01/14 03:34:25;;;;;;;26.55;11.57;;;;;;;;;;5061966;28;20131;-77
2022/01/14 03:36:51;;;;;;;31.73;11.30;;;;;;;;;;5044845;28;20041;-76
2022/01/14 03:39:18;;;;;;;31.40;12.50;;;;;;;;;;5062434;28;20125;-77
2022/01/14 03:41:44;;;;;;;23.77;10.63;;;;;;;;;;5059487;28;20511;-76
2022/01/14 03:44:10;;;;;;;26.88;10.70;;;;;;;;;;5061229;28;20123;-76
2022/01/14 03:46:36;;;;;;;29.58;11.75;;;;;;;;;;5043255;28;20041;-77
2022/01/14 03:49:02;;;;;;;27.92;12.75;;;;;;;;;;5062920;28;20040;-76
2022/01/14 03:51:28;;;;;;;31.70;12.27;;;;;;;;;;5061118;28;20035;-76
2022/01/14 03:53:55;;;;;;;28.75;12.63;;;;;;;;;;5045323;28;20084;-77
2022/01/14 03:56:28;;;;;;;28.23;11.95;;;;;;;;;;5042431;28;20067;-77
2022/01/14 03:58:54;;;;;;;26.33;12.32;;;;;;;;;;5044769;28;20060;-76
2022/01/14 04:01:21;;;;;;;31.90;12.48;;;;;;;;;;5059372;28;20493;-76
2022/01/14 04:03:47;;;;;;;29.77;11.68;;;;;;;;;;5060682;28;20400;-77
2022/01/14 04:06:14;;;;;;;30.08;12.23;;;;;;;;;;5061412;28;20037;-77
2022/01/14 04:08:41;;;;;;;29.15;12.38;;;;;;;;;;5043010;28;20029;-77
2022/01/14 04:11:08;;;;;;;31.48;12.25;;;;;;;;;;5043525;28;20471;-76
2022/01/14 04:13:44;;;;;;;31.15;14.13;;;;;;;;;;5059522;28;20079;-76
2022/01/14 04:16:10;;;;;;;29.33;12.93;;;;;;;;;;5060498;28;20393;-77
2022/01/14 04:18:36;;;;;;;33.35;12.00;;;;;;;;;;5042270;28;20077;-77
2022/01/14 04:21:02;;;;;;;29.88;12.07;;;;;;;;;;5060693;28;20036;-78
2022/01/14 04:23:28;;;;;;;29.35;11.75;;;;;;;;;;5060100;28;20127;-76
2022/01/14 04:25:54;;;;;;;33.72;13.13;;;;;;;;;;5042631;28;20055;-76
2022/01/14 04:28:21;;;;;;;27.60;11.38;;;;;;;;;;5044298;28;20033;-76
2022/01/14 04:30:48;;;;;;;28.83;12.48;;;;;;;;;;5042512;28;20048;-76
2022/01/14 04:33:14;;;;;;;28.98;12.48;;;;;;;;;;5042379;28;20416;-77
2022/01/14 04:35:40;;;;;;;32.17;13.40;;;;;;;;;;5043660;28;20044;-76
2022/01/14 04:38:06;;;;;;;29.08;12.32;;;;;;;;;;5043032;28;20037;-77
2022/01/14 04:40:32;;;;;;;29.90;13.95;;;;;;;;;;5059093;28;20036;-76
2022/01/14 04:43:00;;;;;;;33.42;13.25;;;;;;;;;;5060517;28;20094;-76
2022/01/14 04:48:12;;;;;;;32.38;12.25;;;;;;;;;;5039200;28;20385;-75
2022/01/14 04:50:39;;;;;;;30.42;13.10;;;;;;;;;;5041841;28;20040;-75
2022/01/14 04:53:08;;;;;;;28.63;13.77;;;;;;;;;;5043153;28;20045;-76
2022/01/14 04:55:34;;;;;;;30.23;12.32;;;;;;;;;;5043749;28;20370;-77
2022/01/14 04:57:59;;;;;;;32.58;11.75;;;;;;;;;;5058264;28;20043;-77
2022/01/14 05:00:28;;;;;;;27.42;13.00;;;;;;;;;;5059568;28;20094;-77
2022/01/14 05:02:55;;;;;;;32.35;12.90;;;;;;;;;;5059900;28;20045;-77
2022/01/14 05:05:23;;;;;;;27.17;12.20;;;;;;;;;;5058260;28;20043;-76
2022/01/14 05:07:50;;;;;;;34.17;13.60;;;;;;;;;;5059173;28;20040;-76
2022/01/14 05:12:54;;;;;;;30.10;12.35;;;;;;;;;;5060134;28;20504;-76
2022/01/14 05:15:21;;;;;;;34.65;13.48;;;;;;;;;;5044255;28;20039;-77
2022/01/14 05:17:47;;;;;;;32.78;13.30;;;;;;;;;;5069694;28;20404;-76
2022/01/14 05:20:14;;;;;;;32.08;14.18;;;;;;;;;;5052908;28;20041;-77
2022/01/14 05:22:40;;;;;;;32.17;14.23;;;;;;;;;;5052888;28;20123;-76
2022/01/14 05:25:07;;;;;;;31.67;13.20;;;;;;;;;;5053084;28;20134;-77
2022/01/14 05:27:35;;;;;;;27.98;12.30;;;;;;;;;;5053113;28;20385;-78
2022/01/14 05:30:01;;;;;;;35.08;13.23;;;;;;;;;;5052896;28;20157;-76
2022/01/14 05:32:28;;;;;;;29.05;13.27;;;;;;;;;;5069466;28;20036;-76
2022/01/14 05:34:54;;;;;;;32.47;12.45;;;;;;;;;;5053089;28;20050;-77
2022/01/14 05:37:20;;;;;;;35.97;13.75;;;;;;;;;;5052826;28;20102;-76
2022/01/14 05:39:46;;;;;;;28.88;12.27;;;;;;;;;;5052679;28;20589;-76
2022/01/14 05:42:12;;;;;;;27.83;12.48;;;;;;;;;;5070708;28;20109;-77
2022/01/14 05:44:38;;;;;;;31.40;12.93;;;;;;;;;;5073879;28;20691;-79
2022/01/14 05:47:05;;;;;;;33.22;13.57;;;;;;;;;;5073731;28;20040;-77
2022/01/14 05:49:31;;;;;;;35.50;14.25;;;;;;;;;;5057187;28;20029;-76
2022/01/14 05:51:57;;;;;;;28.65;13.50;;;;;;;;;;5053924;28;20045;-77
2022/01/14 05:54:23;;;;;;;31.50;13.23;;;;;;;;;;5069595;28;20076;-76
2022/01/14 05:56:50;;;;;;;36.08;13.75;;;;;;;;;;5052967;28;20539;-77
2022/01/14 05:59:16;;;;;;;26.95;13.13;;;;;;;;;;5069439;28;20114;-77
2022/01/14 06:01:43;;;;;;;28.05;13.73;;;;;;;;;;5053025;28;20049;-76
2022/01/14 06:04:09;;;;;;;25.10;12.27;;;;;;;;;;5071660;28;20166;-76
2022/01/14 06:06:35;;;;;;;32.15;13.10;;;;;;;;;;5073064;28;20044;-78
2022/01/14 06:09:01;;;;;;;33.40;13.18;;;;;;;;;;5072721;28;20048;-76
2022/01/14 06:11:27;;;;;;;29.65;12.82;;;;;;;;;;5073323;28;20037;-78
2022/01/14 06:13:53;;;;;;;33.75;12.88;;;;;;;;;;5056986;28;20097;-76
2022/01/14 06:16:20;;;;;;;33.42;12.45;;;;;;;;;;5073389;28;20044;-76
2022/01/14 06:18:46;;;;;;;25.67;11.95;;;;;;;;;;5073766;28;20043;-78
2022/01/14 06:21:12;;;;;;;30.55;13.75;;;;;;;;;;5073751;28;20123;-77
2022/01/14 06:23:39;;;;;;;26.52;12.25;;;;;;;;;;5057692;28;20101;-78
2022/01/14 06:26:05;;;;;;;27.38;12.35;;;;;;;;;;5073018;28;20072;-77
2022/01/14 06:28:31;;;;;;;29.60;12.38;;;;;;;;;;5056533;28;20063;-77
2022/01/14 06:30:57;;;;;;;31.70;13.15;;;;;;;;;;5056335;28;20040;-79
2022/01/14 06:33:23;;;;;;;31.60;12.63;;;;;;;;;;5073032;28;20051;-77
2022/01/14 06:35:52;;;;;;;23.55;12.68;;;;;;;;;;5073273;28;20574;-76
2022/01/14 06:38:18;;;;;;;29.98;13.43;;;;;;;;;;5073082;28;20136;-77
2022/01/14 06:40:46;;;;;;;29.35;13.30;;;;;;;;;;5071558;28;20047;-77
2022/01/14 06:43:12;;;;;;;29.52;13.45;;;;;;;;;;5072714;28;20080;-76
2022/01/14 06:45:39;;;;;;;29.13;13.15;;;;;;;;;;5073452;28;20074;-78
2022/01/14 06:48:05;;;;;;;29.05;11.82;;;;;;;;;;5073523;28;20063;-76
2022/01/14 06:50:31;;;;;;;31.55;13.27;;;;;;;;;;5073048;28;20059;-77
2022/01/14 06:52:57;;;;;;;36.08;14.45;;;;;;;;;;5055673;28;20044;-78
2022/01/14 06:55:23;;;;;;;27.23;13.00;;;;;;;;;;5072390;28;20066;-76
2022/01/14 06:57:49;;;;;;;26.23;12.70;;;;;;;;;;5055745;28;20044;-77
2022/01/14 07:00:16;;;;;;;24.60;11.75;;;;;;;;;;5055494;28;20419;-77
2022/01/14 07:02:42;;;;;;;27.60;12.85;;;;;;;;;;5055399;28;20400;-77
2022/01/14 07:05:08;;;;;;;32.05;12.13;;;;;;;;;;5072690;28;20036;-78
2022/01/14 07:07:34;;;;;;;26.67;12.13;;;;;;;;;;5055517;28;20048;-77
2022/01/14 07:10:01;;;;;;;30.00;12.15;;;;;;;;;;5045634;28;20087;-75
2022/01/14 07:12:35;;;;;;;27.48;12.13;;;;;;;;;;5051803;28;20044;-77
2022/01/14 07:15:01;;;;;;;25.83;11.93;;;;;;;;;;5052451;28;20439;-76
2022/01/14 07:17:27;;;;;;;27.35;11.98;;;;;;;;;;5041475;28;20033;-76
2022/01/14 07:19:57;;;;;;;25.38;11.32;;;;;;;;;;5061107;28;20044;-77
2022/01/14 07:22:23;;;;;;;25.38;11.50;;;;;;;;;;5061321;28;20041;-78
2022/01/14 07:24:49;;;;;;;27.55;12.68;;;;;;;;;;5059790;28;20037;-77
2022/01/14 07:27:15;;;;;;;30.27;12.15;;;;;;;;;;5045369;28;20106;-76
2022/01/14 07:29:41;;;;;;;22.02;11.90;;;;;;;;;;5061374;28;20037;-77
2022/01/14 07:32:07;;;;;;;28.67;13.00;;;;;;;;;;5042472;28;20094;-77
2022/01/14 07:34:34;;;;;;;28.50;11.82;;;;;;;;;;5045573;28;20051;-78
2022/01/14 07:37:00;;;;;;;27.20;12.00;;;;;;;;;;5044349;28;20045;-78
2022/01/14 07:39:26;;;;;;;29.90;11.48;;;;;;;;;;5043485;28;20504;-77
2022/01/14 07:41:52;;;;;;;20.48;10.00;;;;;;;;;;5045582;28;20037;-76
2022/01/14 07:44:19;;;;;;;23.83;11.75;;;;;;;;;;5044216;28;20397;-76
2022/01/14 07:46:45;;;;;;;27.77;11.73;;;;;;;;;;5060417;28;20053;-77
2022/01/14 07:49:11;;;;;;;28.85;12.05;;;;;;;;;;5045129;28;20041;-77
2022/01/14 07:51:37;;;;;;;43.75;13.65;;;;;;;;;;5060453;28;20044;-76
2022/01/14 07:54:06;;;;;;;23.60;11.00;;;;;;;;;;5060243;28;20040;-77
2022/01/14 07:56:33;;;;;;;30.67;12.00;;;;;;;;;;5043393;28;20037;-76
2022/01/14 07:59:00;;;;;;;22.92;10.63;;;;;;;;;;5060819;28;20516;-77
2022/01/14 08:01:27;;;;;;;24.48;10.35;;;;;;;;;;5042127;28;20510;-76
2022/01/14 08:03:53;;;;;;;21.58;10.43;;;;;;;;;;5059499;28;20041;-76
2022/01/14 08:06:22;;;;;;;29.05;10.65;;;;;;;;;;5060016;28;20139;-77
2022/01/14 08:08:48;;;;;;;22.00;10.20;;;;;;;;;;5061712;28;20055;-78
2022/01/14 08:11:14;;;;;;;26.92;11.82;;;;;;;;;;5040142;28;20489;-76
2022/01/14 08:13:40;;;;;;;26.60;10.57;;;;;;;;;;5058239;28;20041;-77
2022/01/14 08:16:06;;;;;;;29.50;10.68;;;;;;;;;;5060348;28;20037;-76
2022/01/14 08:18:32;;;;;;;23.83;11.20;;;;;;;;;;5058541;28;20392;-76
2022/01/14 08:20:59;;;;;;;21.80;10.80;;;;;;;;;;5060511;28;20090;-76
2022/01/14 08:23:25;;;;;;;22.05;10.40;;;;;;;;;;5044205;28;20389;-76
2022/01/14 08:25:53;;;;;;;21.60;10.55;;;;;;;;;;5059283;28;20041;-76
2022/01/14 08:28:20;;;;;;;22.88;9.85;;;;;;;;;;5042726;28;20045;-76
2022/01/14 08:30:46;;;;;;;25.17;10.45;;;;;;;;;;5043250;28;20040;-77
2022/01/14 08:33:12;;;;;;;21.85;10.27;;;;;;;;;;5061172;28;20051;-76
2022/01/14 08:35:39;;;;;;;27.48;10.52;;;;;;;;;;5043201;28;20036;-76
2022/01/14 08:38:06;;;;;;;28.42;11.05;;;;;;;;;;5042827;28;20058;-77
2022/01/14 08:40:33;;;;;;;21.35;10.13;;;;;;;;;;5036282;28;20086;-77
2022/01/14 08:42:59;;;;;;;32.80;10.90;;;;;;;;;;5043773;28;20059;-76
2022/01/14 08:45:25;;;;;;;23.90;9.73;;;;;;;;;;5070592;28;20028;-75
2022/01/14 08:47:52;;;;;;;20.92;9.80;;;;;;;;;;5053736;28;20033;-77
2022/01/14 08:50:19;;;;;;;22.15;10.45;;;;;;;;;;5070630;28;20044;-76
2022/01/14 08:52:45;;;;;;;21.23;9.60;;;;;;;;;;5070515;28;20080;-76
2022/01/14 08:55:14;;;;;;;27.90;10.00;;;;;;;;;;5070516;28;20141;-76
2022/01/14 08:57:40;;;;;;;25.13;9.07;;;;;;;;;;5053709;28;20098;-76
2022/01/14 09:00:07;;;;;;;26.02;11.05;;;;;;;;;;5070072;28;20057;-77
2022/01/14 09:02:34;;;;;;;25.33;10.20;;;;;;;;;;5070014;28;20044;-76
2022/01/14 09:05:00;;;;;;;24.55;9.63;;;;;;;;;;5053377;28;20044;-77
2022/01/14 09:07:28;;;;;;;20.90;8.93;;;;;;;;;;5053492;28;20500;-76
2022/01/14 09:09:54;;;;;;;21.60;8.93;;;;;;;;;;5069999;28;20131;-77
2022/01/14 09:12:20;;;;;;;18.48;9.20;;;;;;;;;;5054871;28;20045;-76
2022/01/14 09:14:46;;;;;;;15.07;7.82;;;;;;;;;;5049873;28;20037;-77
2022/01/14 09:17:13;;;;;;;19.45;8.73;;;;;;;;;;5053014;28;20087;-77
2022/01/14 09:19:39;;;;;;;23.58;9.70;;;;;;;;;;5037612;28;22456;-77
2022/01/14 09:22:06;;;;;;;22.40;9.90;;;;;;;;;;5037615;28;20081;-77
2022/01/14 09:24:32;;;;;;;20.23;8.90;;;;;;;;;;5037353;28;20051;-76
2022/01/14 09:26:58;;;;;;;18.73;9.05;;;;;;;;;;5054308;28;20128;-76
2022/01/14 09:29:24;;;;;;;20.92;9.40;;;;;;;;;;5037342;28;20128;-77
2022/01/14 09:31:50;;;;;;;23.02;8.82;;;;;;;;;;5054151;28;20047;-77
2022/01/14 09:34:16;;;;;;;17.15;8.32;;;;;;;;;;5037662;28;20045;-76
2022/01/14 09:36:42;;;;;;;20.48;8.35;;;;;;;;;;5037373;28;20045;-76
2022/01/14 09:39:08;;;;;;;18.13;7.72;;;;;;;;;;5037354;28;20041;-77
2022/01/14 09:41:35;;;;;;;17.02;7.35;;;;;;;;;;5035687;28;20058;-77
2022/01/14 09:44:02;;;;;;;16.25;7.80;;;;;;;;;;5053716;28;20489;-77
2022/01/14 09:46:28;;;;;;;15.80;7.18;;;;;;;;;;5054065;28;20047;-77
2022/01/14 09:48:54;;;;;;;17.63;6.80;;;;;;;;;;5053515;28;20040;-77
2022/01/14 09:51:20;;;;;;;13.75;5.88;;;;;;;;;;5053651;28;20049;-77
2022/01/14 09:53:47;;;;;;;12.40;6.65;;;;;;;;;;5053438;28;20067;-76
2022/01/14 09:56:21;;;;;;;17.23;6.80;;;;;;;;;;5036849;28;20048;-77
2022/01/14 09:58:48;;;;;;;14.80;6.47;;;;;;;;;;5037011;28;20040;-76
2022/01/14 10:01:17;;;;;;;13.85;6.50;;;;;;;;;;5053304;28;20045;-77
2022/01/14 10:03:49;;;;;;;15.88;6.40;;;;;;;;;;5053747;28;20409;-77
2022/01/14 10:06:33;;;;;;;14.70;6.13;;;;;;;;;;5036730;28;20428;-76
2022/01/14 10:09:08;;;;;;;14.23;5.63;;;;;;;;;;5037019;28;20033;-77
2022/01/14 10:11:35;;;;;;;12.40;5.38;;;;;;;;;;5058979;28;20048;-77
2022/01/14 10:14:12;;;;;;;10.45;5.28;;;;;;;;;;5073088;28;20102;-77
2022/01/14 10:16:41;;;;;;;9.38;4.90;;;;;;;;;;5072968;28;20393;-79
2022/01/14 10:19:17;;;;;;;8.73;4.28;;;;;;;;;;5055960;28;20488;-77
2022/01/14 10:21:43;;;;;;;12.75;4.43;;;;;;;;;;5072862;28;20417;-78
2022/01/14 10:24:11;;;;;;;12.48;4.63;;;;;;;;;;5072897;28;20040;-77
2022/01/14 10:26:48;;;;;;;12.10;4.22;;;;;;;;;;5055899;28;20079;-77
2022/01/14 10:29:14;;;;;;;10.35;4.30;;;;;;;;;;5071641;28;20055;-76
2022/01/14 10:31:42;;;;;;;10.98;4.85;;;;;;;;;;5073099;28;20552;-77
2022/01/14 10:34:16;;;;;;;9.45;4.32;;;;;;;;;;5056653;28;20040;-78
2022/01/14 10:36:46;;;;;;;11.35;4.20;;;;;;;;;;5072658;28;20044;-76
2022/01/14 10:39:23;;;;;;;14.02;4.03;;;;;;;;;;5072343;28;20044;-79
2022/01/14 10:41:49;;;;;;;9.23;4.05;;;;;;;;;;5072758;28;20484;-78
2022/01/14 10:44:25;;;;;;;8.77;3.90;;;;;;;;;;5072380;28;20036;-77
2022/01/14 10:47:09;;;;;;;8.82;3.40;;;;;;;;;;5056165;28;20040;-78
2022/01/14 10:49:37;;;;;;;11.55;3.60;;;;;;;;;;5072847;28;20078;-78
2022/01/14 10:52:12;;;;;;;9.98;3.63;;;;;;;;;;5055856;28;20036;-76
2022/01/14 10:54:39;;;;;;;10.25;4.10;;;;;;;;;;5072423;28;20029;-76
2022/01/14 10:57:15;;;;;;;9.57;3.47;;;;;;;;;;5072565;28;20150;-77
2022/01/14 10:59:42;;;;;;;9.73;3.40;;;;;;;;;;5055358;28;20127;-75
2022/01/14 11:02:30;;;;;;;6.47;3.67;;;;;;;;;;5072444;28;20040;-76
2022/01/14 11:05:04;;;;;;;9.63;3.75;;;;;;;;;;5072283;28;20033;-79
2022/01/14 11:07:31;;;;;;;10.40;3.63;;;;;;;;;;5055494;28;20139;-77
2022/01/14 11:09:57;;;;;;;8.02;3.10;;;;;;;;;;5071808;28;20114;-76
2022/01/14 11:12:24;;;;;;;7.30;3.60;;;;;;;;;;5071985;28;20051;-76
2022/01/14 11:14:50;;;;;;;7.15;3.85;;;;;;;;;;5054755;28;20127;-76
2022/01/14 11:17:16;;;;;;;8.90;3.60;;;;;;;;;;5044279;28;20037;-75
2022/01/14 11:19:46;;;;;;;7.88;3.00;;;;;;;;;;5045550;28;20040;-76
2022/01/14 11:24:56;;;;;;;9.52;2.97;;;;;;;;;;5062040;28;20044;-77
2022/01/14 11:27:24;;;;;;;12.23;3.47;;;;;;;;;;5043751;28;20033;-76
2022/01/14 11:29:51;;;;;;;7.65;3.03;;;;;;;;;;5060861;28;20052;-78
2022/01/14 11:32:17;;;;;;;11.95;3.60;;;;;;;;;;5045556;28;20131;-78
2022/01/14 11:34:43;;;;;;;14.15;3.30;;;;;;;;;;5060197;28;20060;-78
2022/01/14 11:37:13;;;;;;;13.80;2.85;;;;;;;;;;5045216;28;20480;-79
2022/01/14 11:39:40;;;;;;;7.90;2.40;;;;;;;;;;5044306;28;20040;-77
2022/01/14 11:42:12;;;;;;;10.65;2.70;;;;;;;;;;5060385;28;20179;-77
2022/01/14 11:44:42;;;;;;;6.90;2.90;;;;;;;;;;5043318;28;20048;-77
2022/01/14 11:47:08;;;;;;;14.48;3.38;;;;;;;;;;5060991;28;20119;-76
2022/01/14 11:49:35;;;;;;;8.50;2.47;;;;;;;;;;5044553;28;20041;-75
2022/01/14 11:52:03;;;;;;;12.63;3.15;;;;;;;;;;5059690;28;20116;-79
2022/01/14 11:54:40;;;;;;;6.55;2.58;;;;;;;;;;5060631;28;20124;-79
2022/01/14 11:57:07;;;;;;;10.70;2.60;;;;;;;;;;5045295;28;20040;-76
2022/01/14 11:59:33;;;;;;;12.07;3.47;;;;;;;;;;5060552;28;20409;-77
2022/01/14 12:01:59;;;;;;;4.90;2.42;;;;;;;;;;5042481;28;20049;-77
2022/01/14 12:04:44;;;;;;;7.32;2.70;;;;;;;;;;5061137;28;20051;-76
2022/01/14 12:07:10;;;;;;;6.50;2.55;;;;;;;;;;5044685;28;20036;-79
2022/01/14 12:09:56;;;;;;;6.30;2.60;;;;;;;;;;5043824;28;20044;-76
2022/01/14 12:12:30;;;;;;;10.48;2.75;;;;;;;;;;5045142;28;20033;-76
2022/01/14 12:15:04;;;;;;;8.88;3.17;;;;;;;;;;5059249;28;20114;-78
2022/01/14 12:17:37;;;;;;;13.73;2.97;;;;;;;;;;5059797;28;20033;-78
2022/01/14 12:20:11;;;;;;;5.60;2.50;;;;;;;;;;5041914;28;20041;-75
2022/01/14 12:22:37;;;;;;;5.43;2.67;;;;;;;;;;5061346;28;20039;-78
2022/01/14 12:25:03;;;;;;;10.43;3.33;;;;;;;;;;5059177;28;20032;-75
2022/01/14 12:27:34;;;;;;;5.53;3.33;;;;;;;;;;5045345;28;20029;-78
2022/01/14 12:30:02;;;;;;;8.90;2.88;;;;;;;;;;5042494;28;20037;-78
2022/01/14 12:32:28;;;;;;;7.25;2.75;;;;;;;;;;5060537;28;20032;-76
2022/01/14 12:34:57;;;;;;;7.03;2.85;;;;;;;;;;5044436;28;20090;-78
2022/01/14 12:37:26;;;;;;;6.40;3.47;;;;;;;;;;5042570;28;20035;-77
2022/01/14 12:39:52;;;;;;;7.40;2.55;;;;;;;;;;5060448;28;20036;-75
2022/01/14 12:42:19;;;;;;;8.77;3.85;;;;;;;;;;5057365;28;20036;-76
2022/01/14 12:44:47;;;;;;;12.70;3.30;;;;;;;;;;5045494;28;20029;-78
2022/01/14 12:47:20;;;;;;;8.40;3.00;;;;;;;;;;5059832;28;20059;-77
2022/01/14 12:49:48;;;;;;;9.38;3.63;;;;;;;;;;5042940;28;20041;-77
2022/01/14 12:52:16;;;;;;;8.68;2.90;;;;;;;;;;5042019;28;20045;-78
2022/01/14 12:54:43;;;;;;;15.10;3.90;;;;;;;;;;5061333;28;20040;-77
2022/01/14 12:57:09;;;;;;;7.57;2.90;;;;;;;;;;5059559;28;20035;-78
2022/01/14 12:59:39;;;;;;;8.73;2.88;;;;;;;;;;5059197;28;20103;-77
2022/01/14 13:02:06;;;;;;;9.95;3.10;;;;;;;;;;5048517;28;20066;-77
2022/01/14 13:04:32;;;;;;;11.13;3.20;;;;;;;;;;5070445;28;20548;-78
2022/01/14 13:07:01;;;;;;;6.38;2.80;;;;;;;;;;5053715;28;20032;-75
2022/01/14 13:09:30;;;;;;;10.82;3.50;;;;;;;;;;5070002;28;20114;-76
2022/01/14 13:11:59;;;;;;;7.72;3.08;;;;;;;;;;5042192;28;20053;-76
2022/01/14 13:14:26;;;;;;;9.80;3.42;;;;;;;;;;5033197;28;20036;-77
2022/01/14 13:16:53;;;;;;;6.35;2.88;;;;;;;;;;5049892;28;20102;-77
2022/01/14 13:19:25;;;;;;;12.23;4.15;;;;;;;;;;5050363;28;20128;-76
2022/01/14 13:21:51;;;;;;;7.93;2.83;;;;;;;;;;5032928;28;20165;-77
2022/01/14 13:24:18;;;;;;;10.13;3.13;;;;;;;;;;5033203;28;20041;-77
2022/01/14 13:26:44;;;;;;;8.23;2.95;;;;;;;;;;5033468;28;20041;-76
2022/01/14 13:29:10;;;;;;;7.60;3.03;;;;;;;;;;5050007;28;20052;-78
2022/01/14 13:31:36;;;;;;;5.55;2.78;;;;;;;;;;5049987;28;20044;-78
2022/01/14 13:34:02;;;;;;;5.28;2.47;;;;;;;;;;5050326;28;20497;-77
2022/01/14 13:36:28;;;;;;;7.25;2.85;;;;;;;;;;5033453;28;20045;-77
2022/01/14 13:39:10;;;;;;;8.23;2.88;;;;;;;;;;5033142;28;20049;-77
2022/01/14 13:41:40;;;;;;;7.50;3.97;;;;;;;;;;5055503;28;20041;-77
2022/01/14 13:44:16;;;;;;;11.77;3.22;;;;;;;;;;5053064;28;20040;-78
2022/01/14 13:46:47;;;;;;;20.52;4.20;;;;;;;;;;5069655;28;20040;-77
2022/01/14 13:49:20;;;;;;;13.10;3.33;;;;;;;;;;5070049;28;20504;-77
2022/01/14 13:51:47;;;;;;;8.63;3.20;;;;;;;;;;5053138;28;20484;-77
2022/01/14 13:54:16;;;;;;;8.23;2.90;;;;;;;;;;5052822;28;20048;-77
2022/01/14 13:56:43;;;;;;;11.65;4.03;;;;;;;;;;5069930;28;20051;-77
2022/01/14 13:59:09;;;;;;;8.90;4.15;;;;;;;;;;5052892;28;20504;-77
2022/01/14 14:01:36;;;;;;;7.70;3.22;;;;;;;;;;5052803;28;20056;-77
2022/01/14 14:06:34;;;;;;;9.05;3.08;;;;;;;;;;5073538;28;20049;-77
2022/01/14 14:09:09;;;;;;;11.27;3.30;;;;;;;;;;5056499;28;20079;-77
2022/01/14 14:16:47;;;;;;;13.27;3.28;;;;;;;;;;5052796;28;20040;-77
2022/01/14 14:19:13;;;;;;;11.75;3.30;;;;;;;;;;5052870;28;20043;-78
2022/01/14 14:21:43;;;;;;;10.27;3.55;;;;;;;;;;5052825;28;20041;-76
2022/01/14 14:24:12;;;;;;;11.32;3.45;;;;;;;;;;5036277;28;20045;-77
2022/01/14 14:26:38;;;;;;;13.27;3.83;;;;;;;;;;5036394;28;20096;-77
2022/01/14 14:29:25;;;;;;;12.80;4.00;;;;;;;;;;5053077;28;20132;-77
2022/01/14 14:31:51;;;;;;;11.60;3.58;;;;;;;;;;5053108;28;20496;-77
2022/01/14 14:34:17;;;;;;;10.73;4.82;;;;;;;;;;5053009;28;20547;-77
2022/01/14 14:36:44;;;;;;;9.70;3.75;;;;;;;;;;5036266;28;20045;-78
2022/01/14 14:39:11;;;;;;;8.90;3.45;;;;;;;;;;5052764;28;20037;-77
2022/01/14 14:41:37;;;;;;;10.00;3.38;;;;;;;;;;5058432;28;20124;-77
2022/01/14 14:44:03;;;;;;;13.65;3.67;;;;;;;;;;5072954;28;20080;-77
2022/01/14 14:46:31;;;;;;;8.73;3.13;;;;;;;;;;5055747;28;20033;-76
2022/01/14 14:48:57;;;;;;;13.98;3.63;;;;;;;;;;5055884;28;20094;-77
2022/01/14 14:51:25;;;;;;;11.32;3.63;;;;;;;;;;5056156;28;20049;-78
2022/01/14 14:53:51;;;;;;;16.13;3.22;;;;;;;;;;5055629;28;20036;-77
2022/01/14 14:56:17;;;;;;;14.35;4.03;;;;;;;;;;5055973;28;20093;-77
2022/01/14 14:58:43;;;;;;;8.68;2.65;;;;;;;;;;5055367;28;20473;-77
2022/01/14 15:01:10;;;;;;;10.52;3.50;;;;;;;;;;5055466;28;20048;-77